sensor_id;sensor_type;location;lat;lon;timestamp;P1;durP1;ratioP1;P2;durP2;ratioP2
57846;SDS011;43675;50.030;21.952;2022-09-06T00:01:39;17.57;;;16.07;;
57846;SDS011;43675;50.030;21.952;2022-09-06T00:04:05;17.60;;;15.93;;
57846;SDS011;43675;50.030;21.952;2022-09-06T00:06:30;17.57;;;15.65;;
57846;SDS011;43675;50.030;21.952;2022-09-06T00:08:56;17.30;;;15.90;;
57846;SDS011;43675;50.030;21.952;2022-09-06T00:11:21;16.85;;;15.25;;
57846;SDS011;43675;50.030;21.952;2022-09-06T00:13:47;17.23;;;15.63;;
57846;SDS011;43675;50.030;21.952;2022-09-06T00:16:15;18.02;;;16.42;;
57846;SDS011;43675;50.030;21.952;2022-09-06T00:18:42;17.52;;;15.98;;
57846;SDS011;43675;50.030;21.952;2022-09-06T00:21:16;18.45;;;16.67;;
57846;SDS011;43675;50.030;21.952;2022-09-06T00:23:44;18.37;;;16.87;;
57846;SDS011;43675;50.030;21.952;2022-09-06T00:26:10;18.25;;;16.65;;
57846;SDS011;43675;50.030;21.952;2022-09-06T00:28:36;18.37;;;16.77;;
57846;SDS011;43675;50.030;21.952;2022-09-06T00:31:14;18.12;;;16.45;;
57846;SDS011;43675;50.030;21.952;2022-09-06T00:33:48;18.27;;;16.42;;
57846;SDS011;43675;50.030;21.952;2022-09-06T00:36:15;18.25;;;16.52;;
57846;SDS011;43675;50.030;21.952;2022-09-06T00:38:41;18.25;;;16.75;;
57846;SDS011;43675;50.030;21.952;2022-09-06T00:41:08;18.20;;;16.73;;
57846;SDS011;43675;50.030;21.952;2022-09-06T00:43:35;18.20;;;16.75;;
57846;SDS011;43675;50.030;21.952;2022-09-06T00:46:01;18.90;;;17.30;;
57846;SDS011;43675;50.030;21.952;2022-09-06T00:48:29;18.92;;;17.40;;
57846;SDS011;43675;50.030;21.952;2022-09-06T00:50:57;19.15;;;17.45;;
57846;SDS011;43675;50.030;21.952;2022-09-06T00:53:25;19.42;;;17.82;;
57846;SDS011;43675;50.030;21.952;2022-09-06T00:55:51;18.82;;;17.20;;
57846;SDS011;43675;50.030;21.952;2022-09-06T00:58:18;19.07;;;17.15;;
57846;SDS011;43675;50.030;21.952;2022-09-06T01:00:44;18.45;;;16.95;;
57846;SDS011;43675;50.030;21.952;2022-09-06T01:03:10;18.85;;;17.25;;
57846;SDS011;43675;50.030;21.952;2022-09-06T01:05:40;19.57;;;17.85;;
57846;SDS011;43675;50.030;21.952;2022-09-06T01:08:37;18.48;;;16.97;;
57846;SDS011;43675;50.030;21.952;2022-09-06T01:11:23;19.02;;;17.30;;
57846;SDS011;43675;50.030;21.952;2022-09-06T01:17:01;19.02;;;17.32;;
57846;SDS011;43675;50.030;21.952;2022-09-06T01:30:52;19.23;;;17.50;;
57846;SDS011;43675;50.030;21.952;2022-09-06T01:33:28;18.87;;;17.10;;
57846;SDS011;43675;50.030;21.952;2022-09-06T01:36:05;19.87;;;17.98;;
57846;SDS011;43675;50.030;21.952;2022-09-06T01:38:33;19.23;;;17.40;;
57846;SDS011;43675;50.030;21.952;2022-09-06T01:41:00;18.67;;;17.02;;
57846;SDS011;43675;50.030;21.952;2022-09-06T01:43:30;18.82;;;17.10;;
57846;SDS011;43675;50.030;21.952;2022-09-06T01:46:18;20.27;;;18.40;;
57846;SDS011;43675;50.030;21.952;2022-09-06T01:56:45;20.08;;;18.25;;
57846;SDS011;43675;50.030;21.952;2022-09-06T01:59:29;20.05;;;18.23;;
57846;SDS011;43675;50.030;21.952;2022-09-06T02:02:02;19.77;;;17.98;;
57846;SDS011;43675;50.030;21.952;2022-09-06T02:04:42;19.32;;;17.52;;
57846;SDS011;43675;50.030;21.952;2022-09-06T02:09:41;19.25;;;17.65;;
57846;SDS011;43675;50.030;21.952;2022-09-06T02:12:09;18.98;;;17.20;;
57846;SDS011;43675;50.030;21.952;2022-09-06T02:14:48;18.37;;;16.82;;
57846;SDS011;43675;50.030;21.952;2022-09-06T02:17:16;20.20;;;18.40;;
57846;SDS011;43675;50.030;21.952;2022-09-06T02:19:53;20.20;;;18.35;;
57846;SDS011;43675;50.030;21.952;2022-09-06T02:22:22;19.70;;;18.00;;
57846;SDS011;43675;50.030;21.952;2022-09-06T02:24:51;19.37;;;17.67;;
57846;SDS011;43675;50.030;21.952;2022-09-06T02:27:19;19.57;;;17.92;;
57846;SDS011;43675;50.030;21.952;2022-09-06T02:29:52;19.70;;;17.90;;
57846;SDS011;43675;50.030;21.952;2022-09-06T02:32:24;19.73;;;17.82;;
57846;SDS011;43675;50.030;21.952;2022-09-06T02:34:51;20.40;;;18.37;;
57846;SDS011;43675;50.030;21.952;2022-09-06T02:37:18;19.35;;;17.75;;
57846;SDS011;43675;50.030;21.952;2022-09-06T02:39:45;19.85;;;17.90;;
57846;SDS011;43675;50.030;21.952;2022-09-06T02:42:11;20.05;;;17.95;;
57846;SDS011;43675;50.030;21.952;2022-09-06T02:44:39;19.92;;;17.92;;
57846;SDS011;43675;50.030;21.952;2022-09-06T02:47:05;19.52;;;17.77;;
57846;SDS011;43675;50.030;21.952;2022-09-06T02:49:31;20.50;;;18.65;;
57846;SDS011;43675;50.030;21.952;2022-09-06T02:51:57;20.60;;;18.80;;
57846;SDS011;43675;50.030;21.952;2022-09-06T02:54:22;20.23;;;18.37;;
57846;SDS011;43675;50.030;21.952;2022-09-06T02:56:48;20.10;;;18.12;;
57846;SDS011;43675;50.030;21.952;2022-09-06T02:59:14;20.35;;;18.57;;
57846;SDS011;43675;50.030;21.952;2022-09-06T03:01:40;19.60;;;17.90;;
57846;SDS011;43675;50.030;21.952;2022-09-06T03:04:05;19.25;;;17.70;;
57846;SDS011;43675;50.030;21.952;2022-09-06T03:06:31;20.57;;;18.57;;
57846;SDS011;43675;50.030;21.952;2022-09-06T03:08:57;20.25;;;18.37;;
57846;SDS011;43675;50.030;21.952;2022-09-06T03:11:23;19.77;;;17.77;;
57846;SDS011;43675;50.030;21.952;2022-09-06T03:13:48;19.62;;;17.90;;
57846;SDS011;43675;50.030;21.952;2022-09-06T03:16:20;20.00;;;18.12;;
57846;SDS011;43675;50.030;21.952;2022-09-06T03:18:46;19.65;;;17.82;;
57846;SDS011;43675;50.030;21.952;2022-09-06T03:21:11;18.75;;;16.95;;
57846;SDS011;43675;50.030;21.952;2022-09-06T03:23:37;19.90;;;18.15;;
57846;SDS011;43675;50.030;21.952;2022-09-06T03:26:09;20.12;;;18.02;;
57846;SDS011;43675;50.030;21.952;2022-09-06T03:28:36;20.23;;;18.25;;
57846;SDS011;43675;50.030;21.952;2022-09-06T03:31:03;19.90;;;18.20;;
57846;SDS011;43675;50.030;21.952;2022-09-06T03:33:35;19.57;;;17.48;;
57846;SDS011;43675;50.030;21.952;2022-09-06T03:36:01;19.30;;;17.50;;
57846;SDS011;43675;50.030;21.952;2022-09-06T03:38:28;19.35;;;17.60;;
57846;SDS011;43675;50.030;21.952;2022-09-06T03:40:54;19.10;;;17.20;;
57846;SDS011;43675;50.030;21.952;2022-09-06T03:43:21;19.75;;;17.65;;
57846;SDS011;43675;50.030;21.952;2022-09-06T03:45:52;19.85;;;18.00;;
57846;SDS011;43675;50.030;21.952;2022-09-06T03:48:26;19.30;;;17.60;;
57846;SDS011;43675;50.030;21.952;2022-09-06T03:50:54;19.35;;;17.55;;
57846;SDS011;43675;50.030;21.952;2022-09-06T03:53:21;20.20;;;18.30;;
57846;SDS011;43675;50.030;21.952;2022-09-06T03:55:49;19.73;;;17.82;;
57846;SDS011;43675;50.030;21.952;2022-09-06T03:58:16;20.00;;;18.20;;
57846;SDS011;43675;50.030;21.952;2022-09-06T04:00:44;19.37;;;17.52;;
57846;SDS011;43675;50.030;21.952;2022-09-06T04:03:09;20.27;;;17.67;;
57846;SDS011;43675;50.030;21.952;2022-09-06T04:05:36;18.85;;;16.80;;
57846;SDS011;43675;50.030;21.952;2022-09-06T04:08:02;18.67;;;16.87;;
57846;SDS011;43675;50.030;21.952;2022-09-06T04:10:27;19.23;;;17.30;;
57846;SDS011;43675;50.030;21.952;2022-09-06T04:12:53;19.02;;;17.12;;
57846;SDS011;43675;50.030;21.952;2022-09-06T04:15:19;19.80;;;17.90;;
57846;SDS011;43675;50.030;21.952;2022-09-06T04:17:44;19.60;;;17.75;;
57846;SDS011;43675;50.030;21.952;2022-09-06T04:20:11;20.60;;;17.98;;
57846;SDS011;43675;50.030;21.952;2022-09-06T04:22:38;22.17;;;18.98;;
57846;SDS011;43675;50.030;21.952;2022-09-06T04:25:04;20.32;;;18.23;;
57846;SDS011;43675;50.030;21.952;2022-09-06T04:27:38;19.95;;;17.85;;
57846;SDS011;43675;50.030;21.952;2022-09-06T04:30:04;20.40;;;18.50;;
57846;SDS011;43675;50.030;21.952;2022-09-06T04:32:30;21.30;;;19.30;;
57846;SDS011;43675;50.030;21.952;2022-09-06T04:35:03;19.90;;;18.05;;
57846;SDS011;43675;50.030;21.952;2022-09-06T04:37:29;20.15;;;17.95;;
57846;SDS011;43675;50.030;21.952;2022-09-06T04:40:02;21.65;;;19.35;;
57846;SDS011;43675;50.030;21.952;2022-09-06T04:42:27;20.02;;;18.07;;
57846;SDS011;43675;50.030;21.952;2022-09-06T04:44:53;19.52;;;17.60;;
57846;SDS011;43675;50.030;21.952;2022-09-06T04:47:19;19.37;;;17.48;;
57846;SDS011;43675;50.030;21.952;2022-09-06T04:49:45;18.95;;;17.15;;
57846;SDS011;43675;50.030;21.952;2022-09-06T04:52:10;20.08;;;17.95;;
57846;SDS011;43675;50.030;21.952;2022-09-06T04:54:36;19.30;;;17.48;;
57846;SDS011;43675;50.030;21.952;2022-09-06T04:57:02;19.07;;;17.10;;
57846;SDS011;43675;50.030;21.952;2022-09-06T04:59:28;19.85;;;18.05;;
57846;SDS011;43675;50.030;21.952;2022-09-06T05:01:53;20.12;;;18.02;;
57846;SDS011;43675;50.030;21.952;2022-09-06T05:04:19;19.35;;;17.55;;
57846;SDS011;43675;50.030;21.952;2022-09-06T05:06:44;19.42;;;17.62;;
57846;SDS011;43675;50.030;21.952;2022-09-06T05:09:10;19.30;;;17.40;;
57846;SDS011;43675;50.030;21.952;2022-09-06T05:11:36;19.98;;;17.98;;
57846;SDS011;43675;50.030;21.952;2022-09-06T05:14:01;19.40;;;17.60;;
57846;SDS011;43675;50.030;21.952;2022-09-06T05:16:27;19.67;;;17.23;;
57846;SDS011;43675;50.030;21.952;2022-09-06T05:18:53;22.10;;;18.52;;
57846;SDS011;43675;50.030;21.952;2022-09-06T05:21:18;19.55;;;17.60;;
57846;SDS011;43675;50.030;21.952;2022-09-06T05:23:44;19.70;;;17.80;;
57846;SDS011;43675;50.030;21.952;2022-09-06T05:26:09;21.23;;;17.05;;
57846;SDS011;43675;50.030;21.952;2022-09-06T05:28:35;20.68;;;18.67;;
57846;SDS011;43675;50.030;21.952;2022-09-06T05:31:11;20.23;;;18.07;;
57846;SDS011;43675;50.030;21.952;2022-09-06T05:33:42;20.48;;;18.57;;
57846;SDS011;43675;50.030;21.952;2022-09-06T05:36:14;21.73;;;18.73;;
57846;SDS011;43675;50.030;21.952;2022-09-06T05:38:40;20.27;;;18.32;;
57846;SDS011;43675;50.030;21.952;2022-09-06T05:41:05;23.12;;;18.77;;
57846;SDS011;43675;50.030;21.952;2022-09-06T05:43:31;21.20;;;18.67;;
57846;SDS011;43675;50.030;21.952;2022-09-06T05:45:57;24.18;;;18.00;;
57846;SDS011;43675;50.030;21.952;2022-09-06T05:48:22;20.50;;;18.52;;
57846;SDS011;43675;50.030;21.952;2022-09-06T05:50:57;21.02;;;18.95;;
57846;SDS011;43675;50.030;21.952;2022-09-06T05:53:35;19.65;;;17.80;;
57846;SDS011;43675;50.030;21.952;2022-09-06T05:56:03;19.90;;;17.73;;
57846;SDS011;43675;50.030;21.952;2022-09-06T05:58:29;19.98;;;18.07;;
57846;SDS011;43675;50.030;21.952;2022-09-06T06:01:05;21.73;;;18.75;;
57846;SDS011;43675;50.030;21.952;2022-09-06T06:03:52;20.35;;;18.35;;
57846;SDS011;43675;50.030;21.952;2022-09-06T06:06:20;19.32;;;17.40;;
57846;SDS011;43675;50.030;21.952;2022-09-06T06:08:46;19.12;;;17.23;;
57846;SDS011;43675;50.030;21.952;2022-09-06T06:11:12;19.57;;;17.85;;
57846;SDS011;43675;50.030;21.952;2022-09-06T06:13:38;18.98;;;16.65;;
57846;SDS011;43675;50.030;21.952;2022-09-06T06:16:08;19.77;;;17.75;;
57846;SDS011;43675;50.030;21.952;2022-09-06T06:18:36;19.30;;;17.30;;
57846;SDS011;43675;50.030;21.952;2022-09-06T06:21:12;19.35;;;17.37;;
57846;SDS011;43675;50.030;21.952;2022-09-06T06:23:50;19.25;;;17.25;;
57846;SDS011;43675;50.030;21.952;2022-09-06T06:26:18;18.75;;;16.95;;
57846;SDS011;43675;50.030;21.952;2022-09-06T06:28:44;20.40;;;17.67;;
57846;SDS011;43675;50.030;21.952;2022-09-06T06:31:10;20.72;;;17.20;;
57846;SDS011;43675;50.030;21.952;2022-09-06T06:33:36;19.77;;;17.30;;
57846;SDS011;43675;50.030;21.952;2022-09-06T06:36:18;20.60;;;17.52;;
57846;SDS011;43675;50.030;21.952;2022-09-06T06:38:35;19.98;;;17.92;;
57846;SDS011;43675;50.030;21.952;2022-09-06T06:41:03;21.75;;;17.98;;
57846;SDS011;43675;50.030;21.952;2022-09-06T06:43:30;20.70;;;18.62;;
57846;SDS011;43675;50.030;21.952;2022-09-06T06:45:56;20.30;;;18.30;;
57846;SDS011;43675;50.030;21.952;2022-09-06T06:48:22;20.40;;;18.23;;
57846;SDS011;43675;50.030;21.952;2022-09-06T06:50:47;26.42;;;19.57;;
57846;SDS011;43675;50.030;21.952;2022-09-06T06:53:13;23.60;;;18.57;;
57846;SDS011;43675;50.030;21.952;2022-09-06T06:55:46;20.15;;;18.23;;
57846;SDS011;43675;50.030;21.952;2022-09-06T06:58:13;20.45;;;18.20;;
57846;SDS011;43675;50.030;21.952;2022-09-06T07:00:42;20.55;;;18.32;;
57846;SDS011;43675;50.030;21.952;2022-09-06T07:03:09;21.73;;;17.65;;
57846;SDS011;43675;50.030;21.952;2022-09-06T07:05:35;24.92;;;20.05;;
57846;SDS011;43675;50.030;21.952;2022-09-06T07:08:02;21.40;;;19.05;;
57846;SDS011;43675;50.030;21.952;2022-09-06T07:10:28;19.25;;;17.12;;
57846;SDS011;43675;50.030;21.952;2022-09-06T07:12:54;21.82;;;17.40;;
57846;SDS011;43675;50.030;21.952;2022-09-06T07:15:20;18.90;;;17.07;;
57846;SDS011;43675;50.030;21.952;2022-09-06T07:17:45;19.45;;;17.45;;
57846;SDS011;43675;50.030;21.952;2022-09-06T07:20:11;19.07;;;17.10;;
57846;SDS011;43675;50.030;21.952;2022-09-06T07:22:37;20.35;;;16.60;;
57846;SDS011;43675;50.030;21.952;2022-09-06T07:25:10;18.40;;;16.47;;
57846;SDS011;43675;50.030;21.952;2022-09-06T07:27:37;18.82;;;16.77;;
57846;SDS011;43675;50.030;21.952;2022-09-06T07:30:03;18.75;;;16.95;;
57846;SDS011;43675;50.030;21.952;2022-09-06T07:32:29;19.12;;;16.70;;
57846;SDS011;43675;50.030;21.952;2022-09-06T07:34:54;18.45;;;16.67;;
57846;SDS011;43675;50.030;21.952;2022-09-06T07:37:20;19.77;;;17.30;;
57846;SDS011;43675;50.030;21.952;2022-09-06T07:39:46;19.75;;;17.65;;
57846;SDS011;43675;50.030;21.952;2022-09-06T07:42:11;19.87;;;18.00;;
57846;SDS011;43675;50.030;21.952;2022-09-06T07:44:37;22.52;;;17.98;;
57846;SDS011;43675;50.030;21.952;2022-09-06T07:47:02;20.40;;;18.27;;
57846;SDS011;43675;50.030;21.952;2022-09-06T07:49:28;21.33;;;19.30;;
57846;SDS011;43675;50.030;21.952;2022-09-06T07:51:54;20.70;;;18.85;;
57846;SDS011;43675;50.030;21.952;2022-09-06T07:54:20;21.75;;;19.65;;
57846;SDS011;43675;50.030;21.952;2022-09-06T07:56:53;20.43;;;18.62;;
57846;SDS011;43675;50.030;21.952;2022-09-06T07:59:18;19.90;;;18.10;;
57846;SDS011;43675;50.030;21.952;2022-09-06T08:01:44;20.23;;;18.62;;
57846;SDS011;43675;50.030;21.952;2022-09-06T08:04:16;18.70;;;16.90;;
57846;SDS011;43675;50.030;21.952;2022-09-06T08:06:42;18.70;;;17.00;;
57846;SDS011;43675;50.030;21.952;2022-09-06T08:09:10;19.00;;;17.12;;
57846;SDS011;43675;50.030;21.952;2022-09-06T08:11:35;17.85;;;16.00;;
57846;SDS011;43675;50.030;21.952;2022-09-06T08:14:03;18.45;;;16.50;;
57846;SDS011;43675;50.030;21.952;2022-09-06T08:16:32;18.40;;;15.95;;
57846;SDS011;43675;50.030;21.952;2022-09-06T08:19:00;19.20;;;16.02;;
57846;SDS011;43675;50.030;21.952;2022-09-06T08:21:29;17.75;;;16.25;;
57846;SDS011;43675;50.030;21.952;2022-09-06T08:23:57;17.10;;;15.70;;
57846;SDS011;43675;50.030;21.952;2022-09-06T08:26:24;17.50;;;16.00;;
57846;SDS011;43675;50.030;21.952;2022-09-06T08:28:52;17.90;;;15.60;;
57846;SDS011;43675;50.030;21.952;2022-09-06T08:31:20;16.05;;;14.75;;
57846;SDS011;43675;50.030;21.952;2022-09-06T08:33:45;16.73;;;15.20;;
57846;SDS011;43675;50.030;21.952;2022-09-06T08:36:12;16.07;;;14.68;;
57846;SDS011;43675;50.030;21.952;2022-09-06T08:38:38;15.78;;;14.58;;
57846;SDS011;43675;50.030;21.952;2022-09-06T08:43:50;15.93;;;14.50;;
57846;SDS011;43675;50.030;21.952;2022-09-06T08:46:14;16.20;;;14.65;;
57846;SDS011;43675;50.030;21.952;2022-09-06T08:48:43;15.58;;;14.38;;
57846;SDS011;43675;50.030;21.952;2022-09-06T08:51:35;15.10;;;13.90;;
57846;SDS011;43675;50.030;21.952;2022-09-06T08:53:58;16.02;;;14.63;;
57846;SDS011;43675;50.030;21.952;2022-09-06T08:56:27;16.85;;;14.58;;
57846;SDS011;43675;50.030;21.952;2022-09-06T08:59:02;15.55;;;14.10;;
57846;SDS011;43675;50.030;21.952;2022-09-06T09:01:39;16.27;;;14.87;;
57846;SDS011;43675;50.030;21.952;2022-09-06T09:04:18;15.83;;;14.58;;
57846;SDS011;43675;50.030;21.952;2022-09-06T09:06:48;15.68;;;14.23;;
57846;SDS011;43675;50.030;21.952;2022-09-06T09:09:16;16.35;;;14.90;;
57846;SDS011;43675;50.030;21.952;2022-09-06T09:11:42;15.95;;;14.65;;
57846;SDS011;43675;50.030;21.952;2022-09-06T09:14:19;16.77;;;15.08;;
57846;SDS011;43675;50.030;21.952;2022-09-06T09:16:50;16.93;;;15.18;;
57846;SDS011;43675;50.030;21.952;2022-09-06T09:19:18;16.67;;;15.05;;
57846;SDS011;43675;50.030;21.952;2022-09-06T09:21:45;16.23;;;14.83;;
57846;SDS011;43675;50.030;21.952;2022-09-06T09:24:12;16.73;;;15.23;;
57846;SDS011;43675;50.030;21.952;2022-09-06T09:26:53;16.97;;;15.48;;
57846;SDS011;43675;50.030;21.952;2022-09-06T09:29:21;16.40;;;15.00;;
57846;SDS011;43675;50.030;21.952;2022-09-06T09:31:48;17.27;;;15.48;;
57846;SDS011;43675;50.030;21.952;2022-09-06T09:34:34;17.05;;;15.18;;
57846;SDS011;43675;50.030;21.952;2022-09-06T09:39:48;16.52;;;14.90;;
57846;SDS011;43675;50.030;21.952;2022-09-06T09:44:58;17.98;;;16.15;;
57846;SDS011;43675;50.030;21.952;2022-09-06T09:47:26;17.20;;;15.70;;
57846;SDS011;43675;50.030;21.952;2022-09-06T09:49:53;17.40;;;15.70;;
57846;SDS011;43675;50.030;21.952;2022-09-06T09:52:28;17.07;;;15.58;;
57846;SDS011;43675;50.030;21.952;2022-09-06T09:55:04;17.02;;;15.53;;
57846;SDS011;43675;50.030;21.952;2022-09-06T09:57:30;16.67;;;15.28;;
57846;SDS011;43675;50.030;21.952;2022-09-06T09:59:58;17.23;;;15.75;;
57846;SDS011;43675;50.030;21.952;2022-09-06T10:05:02;18.12;;;15.53;;
57846;SDS011;43675;50.030;21.952;2022-09-06T10:07:30;16.80;;;15.32;;
57846;SDS011;43675;50.030;21.952;2022-09-06T10:12:28;16.67;;;15.28;;
57846;SDS011;43675;50.030;21.952;2022-09-06T10:14:58;16.48;;;15.05;;
57846;SDS011;43675;50.030;21.952;2022-09-06T10:20:14;16.05;;;14.85;;
57846;SDS011;43675;50.030;21.952;2022-09-06T10:22:58;16.37;;;15.08;;
57846;SDS011;43675;50.030;21.952;2022-09-06T10:31:05;16.48;;;15.18;;
57846;SDS011;43675;50.030;21.952;2022-09-06T10:36:27;17.35;;;16.02;;
57846;SDS011;43675;50.030;21.952;2022-09-06T10:39:09;16.42;;;15.00;;
57846;SDS011;43675;50.030;21.952;2022-09-06T10:46:58;16.37;;;14.98;;
57846;SDS011;43675;50.030;21.952;2022-09-06T10:49:26;15.98;;;14.70;;
57846;SDS011;43675;50.030;21.952;2022-09-06T10:51:53;15.88;;;14.68;;
57846;SDS011;43675;50.030;21.952;2022-09-06T10:54:21;16.65;;;15.25;;
57846;SDS011;43675;50.030;21.952;2022-09-06T10:56:56;16.05;;;14.78;;
57846;SDS011;43675;50.030;21.952;2022-09-06T10:59:31;17.17;;;15.43;;
57846;SDS011;43675;50.030;21.952;2022-09-06T11:02:11;16.85;;;15.25;;
57846;SDS011;43675;50.030;21.952;2022-09-06T11:04:49;17.27;;;15.50;;
57846;SDS011;43675;50.030;21.952;2022-09-06T11:07:28;16.40;;;15.10;;
57846;SDS011;43675;50.030;21.952;2022-09-06T11:12:45;17.00;;;15.50;;
57846;SDS011;43675;50.030;21.952;2022-09-06T11:15:15;16.45;;;14.98;;
57846;SDS011;43675;50.030;21.952;2022-09-06T11:20:36;16.12;;;14.93;;
57846;SDS011;43675;50.030;21.952;2022-09-06T11:26:23;15.98;;;14.53;;
57846;SDS011;43675;50.030;21.952;2022-09-06T11:28:51;15.65;;;14.43;;
57846;SDS011;43675;50.030;21.952;2022-09-06T11:31:30;16.27;;;14.83;;
57846;SDS011;43675;50.030;21.952;2022-09-06T11:34:11;16.20;;;15.00;;
57846;SDS011;43675;50.030;21.952;2022-09-06T11:36:46;15.85;;;14.65;;
57846;SDS011;43675;50.030;21.952;2022-09-06T11:39:15;16.27;;;14.87;;
57846;SDS011;43675;50.030;21.952;2022-09-06T11:42:01;16.07;;;14.85;;
57846;SDS011;43675;50.030;21.952;2022-09-06T11:44:51;16.57;;;15.10;;
57846;SDS011;43675;50.030;21.952;2022-09-06T11:47:37;16.23;;;14.93;;
57846;SDS011;43675;50.030;21.952;2022-09-06T11:58:09;16.40;;;15.00;;
57846;SDS011;43675;50.030;21.952;2022-09-06T12:00:44;16.25;;;14.95;;
57846;SDS011;43675;50.030;21.952;2022-09-06T12:03:58;16.12;;;14.83;;
57846;SDS011;43675;50.030;21.952;2022-09-06T12:06:18;16.15;;;14.85;;
57846;SDS011;43675;50.030;21.952;2022-09-06T12:08:52;16.35;;;15.10;;
57846;SDS011;43675;50.030;21.952;2022-09-06T12:14:01;16.23;;;14.83;;
57846;SDS011;43675;50.030;21.952;2022-09-06T12:24:57;15.55;;;14.18;;
57846;SDS011;43675;50.030;21.952;2022-09-06T12:35:12;16.32;;;14.93;;
57846;SDS011;43675;50.030;21.952;2022-09-06T12:37:53;16.07;;;14.65;;
57846;SDS011;43675;50.030;21.952;2022-09-06T12:40:22;16.00;;;14.70;;
57846;SDS011;43675;50.030;21.952;2022-09-06T12:42:50;15.40;;;14.40;;
57846;SDS011;43675;50.030;21.952;2022-09-06T12:45:17;15.68;;;14.58;;
57846;SDS011;43675;50.030;21.952;2022-09-06T12:47:44;16.02;;;14.90;;
57846;SDS011;43675;50.030;21.952;2022-09-06T12:52:55;15.40;;;14.30;;
57846;SDS011;43675;50.030;21.952;2022-09-06T12:57:52;17.48;;;16.30;;
57846;SDS011;43675;50.030;21.952;2022-09-06T13:00:20;15.85;;;14.73;;
57846;SDS011;43675;50.030;21.952;2022-09-06T13:02:52;16.00;;;14.80;;
57846;SDS011;43675;50.030;21.952;2022-09-06T13:05:29;16.02;;;14.83;;
57846;SDS011;43675;50.030;21.952;2022-09-06T13:07:57;14.80;;;13.55;;
57846;SDS011;43675;50.030;21.952;2022-09-06T13:10:25;14.73;;;13.72;;
57846;SDS011;43675;50.030;21.952;2022-09-06T13:12:52;15.15;;;14.05;;
57846;SDS011;43675;50.030;21.952;2022-09-06T13:15:27;15.30;;;14.20;;
57846;SDS011;43675;50.030;21.952;2022-09-06T13:17:55;15.38;;;14.20;;
57846;SDS011;43675;50.030;21.952;2022-09-06T13:20:40;15.38;;;14.10;;
57846;SDS011;43675;50.030;21.952;2022-09-06T13:23:07;14.60;;;13.48;;
57846;SDS011;43675;50.030;21.952;2022-09-06T13:25:44;14.75;;;13.55;;
57846;SDS011;43675;50.030;21.952;2022-09-06T13:33:34;15.10;;;13.78;;
57846;SDS011;43675;50.030;21.952;2022-09-06T13:38:43;14.87;;;13.83;;
57846;SDS011;43675;50.030;21.952;2022-09-06T13:43:57;14.50;;;13.40;;
57846;SDS011;43675;50.030;21.952;2022-09-06T13:46:27;14.10;;;13.10;;
57846;SDS011;43675;50.030;21.952;2022-09-06T13:48:57;14.23;;;13.20;;
57846;SDS011;43675;50.030;21.952;2022-09-06T13:51:21;14.05;;;13.05;;
57846;SDS011;43675;50.030;21.952;2022-09-06T13:53:48;14.30;;;13.30;;
57846;SDS011;43675;50.030;21.952;2022-09-06T13:56:14;14.00;;;13.00;;
57846;SDS011;43675;50.030;21.952;2022-09-06T13:58:41;14.43;;;13.32;;
57846;SDS011;43675;50.030;21.952;2022-09-06T14:01:08;14.80;;;13.45;;
57846;SDS011;43675;50.030;21.952;2022-09-06T14:03:35;14.70;;;13.43;;
57846;SDS011;43675;50.030;21.952;2022-09-06T14:06:10;14.85;;;13.65;;
57846;SDS011;43675;50.030;21.952;2022-09-06T14:08:42;14.90;;;13.70;;
57846;SDS011;43675;50.030;21.952;2022-09-06T14:11:08;14.75;;;13.62;;
57846;SDS011;43675;50.030;21.952;2022-09-06T14:13:34;14.10;;;13.00;;
57846;SDS011;43675;50.030;21.952;2022-09-06T14:15:59;14.18;;;13.18;;
57846;SDS011;43675;50.030;21.952;2022-09-06T14:18:25;14.30;;;13.22;;
57846;SDS011;43675;50.030;21.952;2022-09-06T14:20:55;14.53;;;13.53;;
57846;SDS011;43675;50.030;21.952;2022-09-06T14:23:25;14.18;;;12.93;;
57846;SDS011;43675;50.030;21.952;2022-09-06T14:25:54;14.70;;;13.60;;
57846;SDS011;43675;50.030;21.952;2022-09-06T14:28:21;14.95;;;13.80;;
57846;SDS011;43675;50.030;21.952;2022-09-06T14:30:47;14.83;;;13.72;;
57846;SDS011;43675;50.030;21.952;2022-09-06T14:33:12;14.73;;;13.62;;
57846;SDS011;43675;50.030;21.952;2022-09-06T14:35:38;14.28;;;13.28;;
57846;SDS011;43675;50.030;21.952;2022-09-06T14:38:05;13.80;;;12.70;;
57846;SDS011;43675;50.030;21.952;2022-09-06T14:40:33;13.95;;;12.85;;
57846;SDS011;43675;50.030;21.952;2022-09-06T14:42:59;13.60;;;12.55;;
57846;SDS011;43675;50.030;21.952;2022-09-06T14:45:24;13.18;;;12.25;;
57846;SDS011;43675;50.030;21.952;2022-09-06T14:47:50;13.62;;;12.53;;
57846;SDS011;43675;50.030;21.952;2022-09-06T14:50:16;13.62;;;12.40;;
57846;SDS011;43675;50.030;21.952;2022-09-06T14:52:41;14.47;;;13.35;;
57846;SDS011;43675;50.030;21.952;2022-09-06T14:55:07;14.70;;;13.50;;
57846;SDS011;43675;50.030;21.952;2022-09-06T14:57:33;14.87;;;13.53;;
57846;SDS011;43675;50.030;21.952;2022-09-06T14:59:59;14.58;;;13.32;;
57846;SDS011;43675;50.030;21.952;2022-09-06T15:02:24;14.35;;;13.05;;
57846;SDS011;43675;50.030;21.952;2022-09-06T15:04:50;14.13;;;13.03;;
57846;SDS011;43675;50.030;21.952;2022-09-06T15:07:22;14.75;;;13.48;;
57846;SDS011;43675;50.030;21.952;2022-09-06T15:09:48;14.25;;;13.22;;
57846;SDS011;43675;50.030;21.952;2022-09-06T15:12:13;14.10;;;12.95;;
57846;SDS011;43675;50.030;21.952;2022-09-06T15:14:39;14.70;;;13.40;;
57846;SDS011;43675;50.030;21.952;2022-09-06T15:17:04;14.90;;;13.80;;
57846;SDS011;43675;50.030;21.952;2022-09-06T15:19:30;15.25;;;14.10;;
57846;SDS011;43675;50.030;21.952;2022-09-06T15:22:03;15.40;;;14.05;;
57846;SDS011;43675;50.030;21.952;2022-09-06T15:24:30;14.38;;;13.22;;
57846;SDS011;43675;50.030;21.952;2022-09-06T15:26:56;14.33;;;13.20;;
57846;SDS011;43675;50.030;21.952;2022-09-06T15:29:22;14.55;;;13.35;;
57846;SDS011;43675;50.030;21.952;2022-09-06T15:31:48;14.10;;;13.10;;
57846;SDS011;43675;50.030;21.952;2022-09-06T15:34:18;14.63;;;13.32;;
57846;SDS011;43675;50.030;21.952;2022-09-06T15:36:44;14.25;;;13.15;;
57846;SDS011;43675;50.030;21.952;2022-09-06T15:39:10;14.43;;;13.13;;
57846;SDS011;43675;50.030;21.952;2022-09-06T15:41:36;14.03;;;13.03;;
57846;SDS011;43675;50.030;21.952;2022-09-06T15:44:14;14.35;;;13.35;;
57846;SDS011;43675;50.030;21.952;2022-09-06T15:46:42;14.15;;;13.05;;
57846;SDS011;43675;50.030;21.952;2022-09-06T15:49:20;14.53;;;13.45;;
57846;SDS011;43675;50.030;21.952;2022-09-06T15:51:44;14.90;;;13.60;;
57846;SDS011;43675;50.030;21.952;2022-09-06T15:54:11;14.33;;;13.20;;
57846;SDS011;43675;50.030;21.952;2022-09-06T15:56:38;14.68;;;13.58;;
57846;SDS011;43675;50.030;21.952;2022-09-06T15:59:03;15.00;;;13.80;;
57846;SDS011;43675;50.030;21.952;2022-09-06T16:01:36;14.85;;;13.55;;
57846;SDS011;43675;50.030;21.952;2022-09-06T16:04:03;14.35;;;13.25;;
57846;SDS011;43675;50.030;21.952;2022-09-06T16:06:31;14.53;;;13.20;;